Aurora, New Mexico
Current Conditions -  °F | °C
As of 6:53 AM on Monday 26 Jan 2015 (Local Time) from KLVS Reporting Station
Clear Clear  
Wind Chill: 17°   Ceiling: Unl
Heat Index: 27°   Visibility: 10mi
Dew Point: 19°   Wind: 10mph
Humidity: 72%   Direction: 40°NE
Pressure: 30.36"   Gusts: NA
Location:  36.0243°N, 105.005°W
Report Text: KLVS 261353Z AUTO 04009KT 10SM CLR M03/M07 A3036 RMK AO2 SLP280 T10281072
Loading
Personal Weather Stations






























Interactive Weather Map New forecast layout! Learn more

10-Day Weather Forecast

Advertisements
Track Severe Weather on mobile